createdAt,value
2023-02-07T00:02:07.382Z,89.20
2023-02-07T00:07:09.936Z,89.07
2023-02-07T00:12:12.444Z,88.87
2023-02-07T00:17:15.054Z,88.94
2023-02-07T00:22:17.580Z,88.70
2023-02-07T00:27:20.321Z,88.76
2023-02-07T00:32:22.899Z,88.42
2023-02-07T00:37:27.919Z,88.34
2023-02-07T00:42:30.847Z,88.17
2023-02-07T00:47:33.388Z,87.94
2023-02-07T00:52:35.952Z,87.64
2023-02-07T00:57:38.549Z,87.64
2023-02-07T01:02:41.113Z,87.24
2023-02-07T01:07:43.718Z,86.91
2023-02-07T01:12:46.558Z,87.13
2023-02-07T01:17:49.146Z,86.87
2023-02-07T01:22:51.944Z,86.50
2023-02-07T01:27:54.647Z,86.82
2023-02-07T01:32:59.353Z,86.77
2023-02-07T01:38:02.779Z,86.78
2023-02-07T01:43:05.554Z,86.55
2023-02-07T01:48:13.288Z,86.75
2023-02-07T01:53:22.317Z,86.86
2023-02-07T01:58:25.724Z,86.63
2023-02-07T02:03:28.329Z,86.89
2023-02-07T02:08:30.959Z,86.68
2023-02-07T02:13:45.100Z,86.80
2023-02-07T02:18:58.690Z,86.94
2023-02-07T02:24:03.292Z,86.74
2023-02-07T02:29:05.922Z,86.85
2023-02-07T02:34:19.843Z,86.62
2023-02-07T02:39:27.118Z,86.60
2023-02-07T02:44:35.564Z,86.39
2023-02-07T02:49:39.644Z,86.33
2023-02-07T02:54:42.365Z,86.24
2023-02-07T02:59:49.832Z,86.29
2023-02-07T03:04:57.339Z,86.07
2023-02-07T03:09:59.911Z,86.49
2023-02-07T03:15:12.590Z,86.33
2023-02-07T03:20:30.464Z,86.38
2023-02-07T03:25:33.529Z,86.33
2023-02-07T03:30:39.239Z,86.30
2023-02-07T03:35:52.468Z,86.11
2023-02-07T03:41:00.957Z,86.10
2023-02-07T03:46:03.654Z,86.35
2023-02-07T03:51:06.454Z,86.11
2023-02-07T03:56:09.066Z,86.07
2023-02-07T04:01:11.831Z,86.00
2023-02-07T04:06:14.487Z,86.27
2023-02-07T04:11:17.085Z,86.01
2023-02-07T04:16:20.899Z,85.92
2023-02-07T04:21:23.596Z,86.21
2023-02-07T04:26:26.233Z,86.43
2023-02-07T04:31:28.923Z,86.25
2023-02-07T04:36:31.915Z,86.30
2023-02-07T04:41:34.578Z,86.31
2023-02-07T04:46:37.262Z,86.38
2023-02-07T04:51:39.898Z,86.48
2023-02-07T04:56:42.544Z,86.47
2023-02-07T05:01:45.176Z,86.57
2023-02-07T05:06:47.921Z,86.39
2023-02-07T05:11:50.588Z,86.30
2023-02-07T05:16:53.220Z,86.38
2023-02-07T05:21:55.885Z,86.40
2023-02-07T05:27:01.480Z,86.61
2023-02-07T05:32:07.213Z,86.80
2023-02-07T05:37:09.894Z,86.59
2023-02-07T05:42:12.572Z,86.66
2023-02-07T05:47:15.214Z,86.62
2023-02-07T05:52:17.858Z,86.59
2023-02-07T05:57:23.233Z,86.60
2023-02-07T06:02:26.013Z,86.57
2023-02-07T06:07:28.665Z,86.78
2023-02-07T06:12:32.431Z,86.97
2023-02-07T06:17:35.264Z,86.76
2023-02-07T06:22:37.928Z,86.82
2023-02-07T06:27:41.347Z,86.63
2023-02-07T06:32:43.950Z,86.79
2023-02-07T06:37:46.800Z,86.51
2023-02-07T06:42:51.806Z,86.41
2023-02-07T06:47:54.449Z,86.31
2023-02-07T06:53:01.907Z,86.26
2023-02-07T06:58:07.077Z,86.45
2023-02-07T07:03:14.455Z,86.34
2023-02-07T07:08:18.619Z,86.11
2023-02-07T07:13:21.322Z,85.83
2023-02-07T07:18:23.982Z,85.13
2023-02-07T07:23:26.577Z,84.87
2023-02-07T07:28:29.649Z,84.12
2023-02-07T07:33:32.768Z,84.04
2023-02-07T07:43:40.781Z,82.37
2023-02-07T07:48:43.431Z,82.13
2023-02-07T07:53:46.164Z,80.72
2023-02-07T07:58:48.861Z,80.70
2023-02-07T08:03:51.546Z,80.16
2023-02-07T08:08:54.203Z,80.01
2023-02-07T08:13:56.831Z,79.90
2023-02-07T08:18:59.470Z,79.23
2023-02-07T08:24:02.086Z,79.04
2023-02-07T08:29:05.086Z,78.44
2023-02-07T08:34:07.726Z,77.78
2023-02-07T08:39:10.506Z,76.34
2023-02-07T08:44:13.353Z,76.22
2023-02-07T08:49:16.056Z,75.47
2023-02-07T08:54:22.151Z,73.44
2023-02-07T08:59:25.092Z,74.77
2023-02-07T09:04:27.818Z,73.64
2023-02-07T09:09:32.721Z,73.77
2023-02-07T09:14:35.459Z,72.80
2023-02-07T09:19:38.154Z,72.16
2023-02-07T09:24:40.763Z,71.29
2023-02-07T09:29:44.201Z,69.37
2023-02-07T09:34:50.080Z,69.30
2023-02-07T09:39:52.695Z,69.39
2023-02-07T09:45:08.698Z,68.67
2023-02-07T09:50:17.602Z,69.10
2023-02-07T09:55:27.565Z,69.57
2023-02-07T10:00:41.290Z,67.80
2023-02-07T10:06:18.538Z,67.74
2023-02-07T10:11:35.590Z,67.59
2023-02-07T10:16:39.072Z,68.09
2023-02-07T10:21:47.483Z,67.25
2023-02-07T10:26:55.348Z,67.58
2023-02-07T10:32:04.164Z,67.15
2023-02-07T10:37:20.341Z,66.59
2023-02-07T10:42:23.927Z,66.90
2023-02-07T10:47:26.621Z,66.39
2023-02-07T10:52:37.347Z,65.96
2023-02-07T10:57:59.736Z,66.90
2023-02-07T11:03:06.796Z,66.52
2023-02-07T11:08:12.492Z,65.85
2023-02-07T11:13:29.274Z,66.12
2023-02-07T11:18:38.051Z,65.57
2023-02-07T11:23:44.628Z,65.59
2023-02-07T11:28:52.228Z,65.37
2023-02-07T11:33:55.128Z,66.29
2023-02-07T11:39:00.785Z,66.49
2023-02-07T11:44:17.549Z,65.87
2023-02-07T11:49:27.644Z,65.51
2023-02-07T11:54:32.172Z,66.27
2023-02-07T11:59:35.965Z,66.84
2023-02-07T12:04:41.354Z,67.32
2023-02-07T12:10:05.895Z,67.81
2023-02-07T12:15:18.901Z,68.06
2023-02-07T12:20:25.421Z,68.04
2023-02-07T12:25:39.245Z,68.36
2023-02-07T12:30:47.567Z,67.67
2023-02-07T12:36:02.831Z,67.48
2023-02-07T12:41:15.337Z,68.20
2023-02-07T12:46:30.673Z,68.25
2023-02-07T12:51:50.004Z,68.70
2023-02-07T12:56:54.885Z,67.42
2023-02-07T13:02:03.332Z,67.88
2023-02-07T13:07:16.090Z,67.98
2023-02-07T13:12:28.908Z,67.99
2023-02-07T13:17:44.478Z,67.63
2023-02-07T13:23:02.606Z,68.18
2023-02-07T13:28:13.667Z,68.32
2023-02-07T13:33:28.280Z,67.90
2023-02-07T13:38:36.228Z,69.31
2023-02-07T13:43:58.789Z,69.18
2023-02-07T13:49:25.724Z,69.94
2023-02-07T13:54:36.310Z,70.36
2023-02-07T13:59:39.362Z,69.63
2023-02-07T14:04:47.062Z,70.55
2023-02-07T14:09:50.135Z,71.02
2023-02-07T14:15:02.514Z,72.09
2023-02-07T14:20:06.238Z,72.65
2023-02-07T14:25:09.926Z,73.20
2023-02-07T14:30:12.510Z,73.92
2023-02-07T14:35:16.424Z,74.29
2023-02-07T14:40:24.660Z,75.01
2023-02-07T14:45:34.597Z,75.21
2023-02-07T14:50:37.700Z,75.62
2023-02-07T14:55:48.893Z,75.75
2023-02-07T15:00:56.263Z,76.24
2023-02-07T15:06:01.650Z,76.12
2023-02-07T15:11:07.177Z,76.46
2023-02-07T15:16:10.898Z,76.70
2023-02-07T15:21:19.994Z,76.98
2023-02-07T15:26:22.709Z,77.62
2023-02-07T15:31:25.654Z,78.17
2023-02-07T15:36:31.610Z,77.85
2023-02-07T15:41:34.832Z,77.89
2023-02-07T15:46:43.294Z,78.05
2023-02-07T15:51:45.945Z,78.13
2023-02-07T15:56:51.862Z,78.80
2023-02-07T16:01:58.057Z,78.48
2023-02-07T16:07:03.930Z,78.56
2023-02-07T16:12:12.314Z,78.97
2023-02-07T16:17:20.773Z,79.52
2023-02-07T16:22:28.782Z,79.87
2023-02-07T16:27:33.893Z,80.38
2023-02-07T16:32:36.497Z,80.95
2023-02-07T16:37:39.104Z,80.87
2023-02-07T16:42:42.965Z,81.14
2023-02-07T16:47:46.050Z,81.34
2023-02-07T16:52:50.460Z,81.52
2023-02-07T16:57:54.735Z,81.53
2023-02-07T17:02:57.937Z,81.78
2023-02-07T17:08:00.568Z,82.12
2023-02-07T17:13:03.169Z,82.01
2023-02-07T17:18:05.819Z,82.18
2023-02-07T17:23:08.471Z,82.27
2023-02-07T17:28:15.840Z,81.96
2023-02-07T17:33:18.503Z,82.32
2023-02-07T17:38:21.106Z,82.45
2023-02-07T17:43:23.754Z,83.03
2023-02-07T17:48:30.147Z,82.97
2023-02-07T17:53:32.662Z,83.21
2023-02-07T17:58:37.998Z,83.01
2023-02-07T18:03:40.661Z,82.99
2023-02-07T18:08:44.879Z,83.26
2023-02-07T18:13:47.984Z,83.68
2023-02-07T18:18:52.327Z,83.81
2023-02-07T18:23:56.207Z,84.06
2023-02-07T18:28:58.907Z,84.40
2023-02-07T18:34:03.766Z,84.85
2023-02-07T18:39:07.405Z,84.46
2023-02-07T18:44:10.058Z,84.12
2023-02-07T18:49:13.842Z,84.27
2023-02-07T18:54:19.406Z,84.36
2023-02-07T18:59:23.849Z,84.37
2023-02-07T19:04:29.616Z,84.39
2023-02-07T19:09:32.693Z,84.38
2023-02-07T19:14:35.543Z,84.77
2023-02-07T19:19:41.606Z,84.98
2023-02-07T19:24:44.785Z,84.88
2023-02-07T19:29:47.668Z,85.30
2023-02-07T19:34:50.314Z,85.53
2023-02-07T19:39:56.034Z,85.15
2023-02-07T19:44:58.752Z,84.76
2023-02-07T19:50:01.398Z,84.97
2023-02-07T19:55:04.327Z,85.41
2023-02-07T20:00:10.544Z,85.74
2023-02-07T20:05:13.197Z,85.42
2023-02-07T20:10:15.843Z,85.07
2023-02-07T20:15:18.598Z,85.17
2023-02-07T20:20:21.196Z,85.55
2023-02-07T20:25:23.883Z,85.90
2023-02-07T20:30:27.200Z,85.76
2023-02-07T20:35:29.893Z,85.94
2023-02-07T20:40:32.651Z,86.44
2023-02-07T20:45:37.579Z,86.65
2023-02-07T20:50:41.013Z,86.88
2023-02-07T20:55:43.866Z,87.00
2023-02-07T21:00:46.559Z,87.45
2023-02-07T21:05:49.272Z,87.57
2023-02-07T21:10:51.892Z,87.12
2023-02-07T21:16:02.979Z,87.65
2023-02-07T21:21:08.818Z,87.26
2023-02-07T21:26:14.418Z,87.72
2023-02-07T21:31:20.877Z,87.81
2023-02-07T21:36:26.850Z,87.33
2023-02-07T21:41:29.619Z,87.22
2023-02-07T21:46:35.063Z,87.24
2023-02-07T21:51:37.681Z,87.57
2023-02-07T21:56:41.918Z,87.65
2023-02-07T22:01:46.095Z,87.31
2023-02-07T22:06:49.292Z,86.97
2023-02-07T22:11:52.103Z,86.04
2023-02-07T22:16:56.005Z,85.74
2023-02-07T22:21:58.952Z,84.97
2023-02-07T22:27:01.633Z,85.26
2023-02-07T22:32:04.515Z,85.62
2023-02-07T22:37:07.465Z,85.16
2023-02-07T22:42:10.047Z,85.30
2023-02-07T22:47:12.664Z,85.54
2023-02-07T22:52:15.252Z,86.34
2023-02-07T22:57:17.870Z,86.47
2023-02-07T23:02:20.651Z,86.59
2023-02-07T23:07:24.632Z,86.28
2023-02-07T23:12:28.173Z,86.08
2023-02-07T23:17:30.855Z,85.78
2023-02-07T23:22:37.456Z,85.88
2023-02-07T23:27:40.069Z,86.26
2023-02-07T23:32:42.718Z,86.26
2023-02-07T23:37:45.318Z,86.33
2023-02-07T23:42:47.913Z,85.73
2023-02-07T23:47:50.794Z,85.45
2023-02-07T23:52:53.399Z,85.01
2023-02-07T23:57:56.013Z,85.12
